sensor_id;sensor_type;location;lat;lon;timestamp;P1;durP1;ratioP1;P2;durP2;ratioP2
21860;SDS011;11095;48.066;8.540;2022-07-30T00:02:07;9.38;;;8.38;;
21860;SDS011;11095;48.066;8.540;2022-07-30T00:04:33;9.00;;;8.10;;
21860;SDS011;11095;48.066;8.540;2022-07-30T00:06:59;9.95;;;8.95;;
21860;SDS011;11095;48.066;8.540;2022-07-30T00:09:25;8.85;;;7.95;;
21860;SDS011;11095;48.066;8.540;2022-07-30T00:11:51;8.90;;;7.90;;
21860;SDS011;11095;48.066;8.540;2022-07-30T00:14:16;7.57;;;6.82;;
21860;SDS011;11095;48.066;8.540;2022-07-30T00:16:42;8.07;;;7.28;;
21860;SDS011;11095;48.066;8.540;2022-07-30T00:19:08;7.63;;;6.93;;
21860;SDS011;11095;48.066;8.540;2022-07-30T00:21:34;7.68;;;6.88;;
21860;SDS011;11095;48.066;8.540;2022-07-30T00:23:59;7.13;;;6.38;;
21860;SDS011;11095;48.066;8.540;2022-07-30T00:26:25;6.40;;;5.80;;
21860;SDS011;11095;48.066;8.540;2022-07-30T00:28:51;6.40;;;5.80;;
21860;SDS011;11095;48.066;8.540;2022-07-30T00:31:16;6.07;;;5.57;;
21860;SDS011;11095;48.066;8.540;2022-07-30T00:33:42;5.18;;;4.68;;
21860;SDS011;11095;48.066;8.540;2022-07-30T00:36:07;5.70;;;5.20;;
21860;SDS011;11095;48.066;8.540;2022-07-30T00:38:33;5.47;;;4.97;;
21860;SDS011;11095;48.066;8.540;2022-07-30T00:40:58;5.70;;;4.93;;
21860;SDS011;11095;48.066;8.540;2022-07-30T00:43:24;6.63;;;5.07;;
21860;SDS011;11095;48.066;8.540;2022-07-30T00:45:50;4.85;;;4.45;;
21860;SDS011;11095;48.066;8.540;2022-07-30T00:48:15;5.28;;;4.38;;
21860;SDS011;11095;48.066;8.540;2022-07-30T00:50:41;5.65;;;5.05;;
21860;SDS011;11095;48.066;8.540;2022-07-30T00:53:07;5.85;;;5.22;;
21860;SDS011;11095;48.066;8.540;2022-07-30T00:55:33;5.80;;;5.20;;
21860;SDS011;11095;48.066;8.540;2022-07-30T00:58:00;5.80;;;5.20;;
21860;SDS011;11095;48.066;8.540;2022-07-30T01:00:26;5.43;;;4.93;;
21860;SDS011;11095;48.066;8.540;2022-07-30T01:02:52;5.40;;;4.97;;
21860;SDS011;11095;48.066;8.540;2022-07-30T01:05:18;6.60;;;5.85;;
21860;SDS011;11095;48.066;8.540;2022-07-30T01:07:44;6.68;;;6.05;;
21860;SDS011;11095;48.066;8.540;2022-07-30T01:10:10;7.05;;;6.43;;
21860;SDS011;11095;48.066;8.540;2022-07-30T01:12:39;5.82;;;5.32;;
21860;SDS011;11095;48.066;8.540;2022-07-30T01:15:06;5.72;;;5.20;;
21860;SDS011;11095;48.066;8.540;2022-07-30T01:17:33;5.63;;;5.13;;
21860;SDS011;11095;48.066;8.540;2022-07-30T01:20:04;5.75;;;5.15;;
21860;SDS011;11095;48.066;8.540;2022-07-30T01:22:51;6.35;;;5.75;;
21860;SDS011;11095;48.066;8.540;2022-07-30T01:28:03;6.05;;;5.47;;
21860;SDS011;11095;48.066;8.540;2022-07-30T01:30:34;5.97;;;5.35;;
21860;SDS011;11095;48.066;8.540;2022-07-30T01:33:03;5.88;;;5.25;;
21860;SDS011;11095;48.066;8.540;2022-07-30T01:35:32;5.32;;;4.88;;
21860;SDS011;11095;48.066;8.540;2022-07-30T01:37:59;5.28;;;4.78;;
21860;SDS011;11095;48.066;8.540;2022-07-30T01:40:27;5.30;;;4.80;;
21860;SDS011;11095;48.066;8.540;2022-07-30T01:42:54;5.75;;;5.22;;
21860;SDS011;11095;48.066;8.540;2022-07-30T01:45:23;5.80;;;4.90;;
21860;SDS011;11095;48.066;8.540;2022-07-30T01:47:51;5.63;;;5.00;;
21860;SDS011;11095;48.066;8.540;2022-07-30T01:50:18;5.05;;;4.65;;
21860;SDS011;11095;48.066;8.540;2022-07-30T01:52:46;5.45;;;4.82;;
21860;SDS011;11095;48.066;8.540;2022-07-30T01:55:15;4.90;;;4.43;;
21860;SDS011;11095;48.066;8.540;2022-07-30T01:57:44;5.28;;;4.60;;
21860;SDS011;11095;48.066;8.540;2022-07-30T02:00:12;4.60;;;4.20;;
21860;SDS011;11095;48.066;8.540;2022-07-30T02:02:38;5.82;;;4.10;;
21860;SDS011;11095;48.066;8.540;2022-07-30T02:05:05;4.45;;;4.05;;
21860;SDS011;11095;48.066;8.540;2022-07-30T02:10:13;4.38;;;3.97;;
21860;SDS011;11095;48.066;8.540;2022-07-30T02:12:47;4.53;;;4.13;;
21860;SDS011;11095;48.066;8.540;2022-07-30T02:20:19;4.38;;;4.00;;
21860;SDS011;11095;48.066;8.540;2022-07-30T02:22:47;4.43;;;4.03;;
21860;SDS011;11095;48.066;8.540;2022-07-30T02:25:14;5.43;;;4.63;;
21860;SDS011;11095;48.066;8.540;2022-07-30T02:27:44;5.10;;;4.60;;
21860;SDS011;11095;48.066;8.540;2022-07-30T02:30:13;4.45;;;4.05;;
21860;SDS011;11095;48.066;8.540;2022-07-30T02:32:40;4.53;;;4.13;;
21860;SDS011;11095;48.066;8.540;2022-07-30T02:35:18;5.63;;;4.20;;
21860;SDS011;11095;48.066;8.540;2022-07-30T02:37:47;5.28;;;4.40;;
21860;SDS011;11095;48.066;8.540;2022-07-30T02:40:15;4.70;;;4.30;;
21860;SDS011;11095;48.066;8.540;2022-07-30T02:42:44;4.20;;;3.80;;
21860;SDS011;11095;48.066;8.540;2022-07-30T02:45:11;6.15;;;4.55;;
21860;SDS011;11095;48.066;8.540;2022-07-30T02:47:38;5.35;;;4.85;;
21860;SDS011;11095;48.066;8.540;2022-07-30T02:50:05;5.70;;;5.10;;
21860;SDS011;11095;48.066;8.540;2022-07-30T02:52:32;5.10;;;4.60;;
21860;SDS011;11095;48.066;8.540;2022-07-30T02:55:01;4.60;;;4.20;;
21860;SDS011;11095;48.066;8.540;2022-07-30T02:57:29;4.57;;;4.18;;
21860;SDS011;11095;48.066;8.540;2022-07-30T02:59:56;5.18;;;4.40;;
21860;SDS011;11095;48.066;8.540;2022-07-30T03:02:23;4.57;;;4.18;;
21860;SDS011;11095;48.066;8.540;2022-07-30T03:04:49;4.53;;;4.13;;
21860;SDS011;11095;48.066;8.540;2022-07-30T03:07:16;4.10;;;3.80;;
21860;SDS011;11095;48.066;8.540;2022-07-30T03:09:44;4.32;;;3.97;;
21860;SDS011;11095;48.066;8.540;2022-07-30T03:12:11;4.20;;;3.70;;
21860;SDS011;11095;48.066;8.540;2022-07-30T03:14:38;5.07;;;4.47;;
21860;SDS011;11095;48.066;8.540;2022-07-30T03:17:05;4.50;;;4.10;;
21860;SDS011;11095;48.066;8.540;2022-07-30T03:19:32;4.40;;;4.00;;
21860;SDS011;11095;48.066;8.540;2022-07-30T03:22:01;5.97;;;4.53;;
21860;SDS011;11095;48.066;8.540;2022-07-30T03:24:28;4.80;;;4.40;;
21860;SDS011;11095;48.066;8.540;2022-07-30T03:26:56;5.18;;;4.30;;
21860;SDS011;11095;48.066;8.540;2022-07-30T03:29:24;4.95;;;4.45;;
21860;SDS011;11095;48.066;8.540;2022-07-30T03:31:51;4.78;;;4.35;;
21860;SDS011;11095;48.066;8.540;2022-07-30T03:34:18;5.55;;;4.70;;
21860;SDS011;11095;48.066;8.540;2022-07-30T03:36:45;5.30;;;4.72;;
21860;SDS011;11095;48.066;8.540;2022-07-30T03:39:11;5.50;;;5.05;;
21860;SDS011;11095;48.066;8.540;2022-07-30T03:41:38;5.40;;;4.90;;
21860;SDS011;11095;48.066;8.540;2022-07-30T03:44:05;4.45;;;4.05;;
21860;SDS011;11095;48.066;8.540;2022-07-30T03:46:33;4.80;;;4.40;;
21860;SDS011;11095;48.066;8.540;2022-07-30T03:49:00;5.35;;;4.85;;
21860;SDS011;11095;48.066;8.540;2022-07-30T03:51:27;4.85;;;4.30;;
21860;SDS011;11095;48.066;8.540;2022-07-30T03:53:53;4.65;;;4.25;;
21860;SDS011;11095;48.066;8.540;2022-07-30T03:56:20;4.25;;;3.85;;
21860;SDS011;11095;48.066;8.540;2022-07-30T03:58:46;5.43;;;4.45;;
21860;SDS011;11095;48.066;8.540;2022-07-30T04:01:12;5.20;;;4.70;;
21860;SDS011;11095;48.066;8.540;2022-07-30T04:03:38;4.70;;;4.30;;
21860;SDS011;11095;48.066;8.540;2022-07-30T04:06:03;4.65;;;4.25;;
21860;SDS011;11095;48.066;8.540;2022-07-30T04:08:29;4.95;;;4.50;;
21860;SDS011;11095;48.066;8.540;2022-07-30T04:10:55;4.50;;;4.10;;
21860;SDS011;11095;48.066;8.540;2022-07-30T04:13:21;4.78;;;4.38;;
21860;SDS011;11095;48.066;8.540;2022-07-30T04:15:54;5.15;;;4.63;;
21860;SDS011;11095;48.066;8.540;2022-07-30T04:18:27;5.40;;;4.90;;
21860;SDS011;11095;48.066;8.540;2022-07-30T04:20:57;5.43;;;4.82;;
21860;SDS011;11095;48.066;8.540;2022-07-30T04:23:25;5.10;;;4.70;;
21860;SDS011;11095;48.066;8.540;2022-07-30T04:25:51;5.07;;;3.97;;
21860;SDS011;11095;48.066;8.540;2022-07-30T04:28:17;5.20;;;4.32;;
21860;SDS011;11095;48.066;8.540;2022-07-30T04:30:44;6.45;;;3.90;;
21860;SDS011;11095;48.066;8.540;2022-07-30T04:33:10;3.75;;;3.17;;
21860;SDS011;11095;48.066;8.540;2022-07-30T04:35:36;3.40;;;3.00;;
21860;SDS011;11095;48.066;8.540;2022-07-30T04:38:02;4.43;;;2.90;;
21860;SDS011;11095;48.066;8.540;2022-07-30T04:40:28;4.22;;;2.80;;
21860;SDS011;11095;48.066;8.540;2022-07-30T04:42:55;3.03;;;2.75;;
21860;SDS011;11095;48.066;8.540;2022-07-30T04:45:22;3.22;;;2.85;;
21860;SDS011;11095;48.066;8.540;2022-07-30T04:47:48;2.83;;;2.63;;
21860;SDS011;11095;48.066;8.540;2022-07-30T04:50:13;3.15;;;2.67;;
21860;SDS011;11095;48.066;8.540;2022-07-30T04:52:41;2.60;;;2.40;;
21860;SDS011;11095;48.066;8.540;2022-07-30T04:55:08;2.85;;;2.65;;
21860;SDS011;11095;48.066;8.540;2022-07-30T04:57:36;2.85;;;2.25;;
21860;SDS011;11095;48.066;8.540;2022-07-30T05:00:05;2.97;;;2.60;;
21860;SDS011;11095;48.066;8.540;2022-07-30T05:02:32;2.50;;;2.30;;
21860;SDS011;11095;48.066;8.540;2022-07-30T05:05:01;3.65;;;2.60;;
21860;SDS011;11095;48.066;8.540;2022-07-30T05:07:28;3.47;;;2.30;;
21860;SDS011;11095;48.066;8.540;2022-07-30T05:09:56;2.78;;;2.50;;
21860;SDS011;11095;48.066;8.540;2022-07-30T05:12:30;2.25;;;1.90;;
21860;SDS011;11095;48.066;8.540;2022-07-30T05:14:57;2.22;;;2.00;;
21860;SDS011;11095;48.066;8.540;2022-07-30T05:17:22;3.10;;;2.10;;
21860;SDS011;11095;48.066;8.540;2022-07-30T05:19:48;2.40;;;2.20;;
21860;SDS011;11095;48.066;8.540;2022-07-30T05:22:14;2.88;;;2.20;;
21860;SDS011;11095;48.066;8.540;2022-07-30T05:24:39;2.40;;;2.20;;
21860;SDS011;11095;48.066;8.540;2022-07-30T05:27:05;2.83;;;2.00;;
21860;SDS011;11095;48.066;8.540;2022-07-30T05:29:31;3.80;;;2.30;;
21860;SDS011;11095;48.066;8.540;2022-07-30T05:31:57;3.15;;;2.20;;
21860;SDS011;11095;48.066;8.540;2022-07-30T05:34:22;3.20;;;2.40;;
21860;SDS011;11095;48.066;8.540;2022-07-30T05:36:48;2.75;;;2.03;;
21860;SDS011;11095;48.066;8.540;2022-07-30T05:39:15;3.25;;;2.10;;
21860;SDS011;11095;48.066;8.540;2022-07-30T05:41:40;2.47;;;1.80;;
21860;SDS011;11095;48.066;8.540;2022-07-30T05:44:06;4.82;;;2.03;;
21860;SDS011;11095;48.066;8.540;2022-07-30T05:46:32;3.03;;;1.90;;
21860;SDS011;11095;48.066;8.540;2022-07-30T05:48:58;2.40;;;1.90;;
21860;SDS011;11095;48.066;8.540;2022-07-30T05:51:23;3.15;;;1.80;;
21860;SDS011;11095;48.066;8.540;2022-07-30T05:53:49;3.58;;;2.05;;
21860;SDS011;11095;48.066;8.540;2022-07-30T05:56:15;2.67;;;1.70;;
21860;SDS011;11095;48.066;8.540;2022-07-30T05:58:41;2.55;;;1.85;;
21860;SDS011;11095;48.066;8.540;2022-07-30T06:01:07;2.38;;;1.73;;
21860;SDS011;11095;48.066;8.540;2022-07-30T06:03:33;3.17;;;2.00;;
21860;SDS011;11095;48.066;8.540;2022-07-30T06:05:58;2.45;;;1.80;;
21860;SDS011;11095;48.066;8.540;2022-07-30T06:08:26;2.35;;;1.90;;
21860;SDS011;11095;48.066;8.540;2022-07-30T06:10:51;2.38;;;1.80;;
21860;SDS011;11095;48.066;8.540;2022-07-30T06:13:17;2.40;;;1.90;;
21860;SDS011;11095;48.066;8.540;2022-07-30T06:15:43;2.78;;;1.70;;
21860;SDS011;11095;48.066;8.540;2022-07-30T06:18:09;2.17;;;1.75;;
21860;SDS011;11095;48.066;8.540;2022-07-30T06:20:34;2.50;;;1.80;;
21860;SDS011;11095;48.066;8.540;2022-07-30T06:23:00;2.20;;;1.80;;
21860;SDS011;11095;48.066;8.540;2022-07-30T06:25:25;3.05;;;2.13;;
21860;SDS011;11095;48.066;8.540;2022-07-30T06:27:51;4.05;;;1.90;;
21860;SDS011;11095;48.066;8.540;2022-07-30T06:30:17;2.30;;;1.80;;
21860;SDS011;11095;48.066;8.540;2022-07-30T06:32:42;3.05;;;1.85;;
21860;SDS011;11095;48.066;8.540;2022-07-30T06:35:09;2.40;;;1.75;;
21860;SDS011;11095;48.066;8.540;2022-07-30T06:37:35;3.00;;;1.60;;
21860;SDS011;11095;48.066;8.540;2022-07-30T06:40:01;2.58;;;1.90;;
21860;SDS011;11095;48.066;8.540;2022-07-30T06:42:26;2.55;;;1.60;;
21860;SDS011;11095;48.066;8.540;2022-07-30T06:44:52;2.05;;;1.52;;
21860;SDS011;11095;48.066;8.540;2022-07-30T06:47:19;2.22;;;1.70;;
21860;SDS011;11095;48.066;8.540;2022-07-30T06:49:50;2.72;;;1.70;;
21860;SDS011;11095;48.066;8.540;2022-07-30T06:52:15;2.35;;;1.80;;
21860;SDS011;11095;48.066;8.540;2022-07-30T06:54:41;2.45;;;1.80;;
21860;SDS011;11095;48.066;8.540;2022-07-30T06:57:07;2.35;;;1.60;;
21860;SDS011;11095;48.066;8.540;2022-07-30T06:59:33;4.05;;;2.10;;
21860;SDS011;11095;48.066;8.540;2022-07-30T07:01:58;2.22;;;2.00;;
21860;SDS011;11095;48.066;8.540;2022-07-30T07:04:24;3.15;;;1.90;;
21860;SDS011;11095;48.066;8.540;2022-07-30T07:06:50;2.55;;;1.70;;
21860;SDS011;11095;48.066;8.540;2022-07-30T07:09:15;2.58;;;1.77;;
21860;SDS011;11095;48.066;8.540;2022-07-30T07:11:41;2.78;;;2.00;;
21860;SDS011;11095;48.066;8.540;2022-07-30T07:14:07;2.10;;;1.90;;
21860;SDS011;11095;48.066;8.540;2022-07-30T07:16:33;3.20;;;1.85;;
21860;SDS011;11095;48.066;8.540;2022-07-30T07:18:59;2.63;;;1.98;;
21860;SDS011;11095;48.066;8.540;2022-07-30T07:21:24;3.67;;;2.30;;
21860;SDS011;11095;48.066;8.540;2022-07-30T07:23:50;2.28;;;1.58;;
21860;SDS011;11095;48.066;8.540;2022-07-30T07:26:16;2.45;;;1.70;;
21860;SDS011;11095;48.066;8.540;2022-07-30T07:28:41;3.08;;;1.60;;
21860;SDS011;11095;48.066;8.540;2022-07-30T07:31:08;2.38;;;1.65;;
21860;SDS011;11095;48.066;8.540;2022-07-30T07:33:34;2.97;;;1.85;;
21860;SDS011;11095;48.066;8.540;2022-07-30T07:36:00;4.10;;;1.73;;
21860;SDS011;11095;48.066;8.540;2022-07-30T07:38:25;2.20;;;1.67;;
21860;SDS011;11095;48.066;8.540;2022-07-30T07:40:52;4.32;;;1.80;;
21860;SDS011;11095;48.066;8.540;2022-07-30T07:43:18;4.15;;;1.50;;
21860;SDS011;11095;48.066;8.540;2022-07-30T07:45:43;5.20;;;1.80;;
21860;SDS011;11095;48.066;8.540;2022-07-30T07:48:09;2.33;;;1.30;;
21860;SDS011;11095;48.066;8.540;2022-07-30T07:50:35;3.20;;;1.20;;
21860;SDS011;11095;48.066;8.540;2022-07-30T07:53:01;3.42;;;2.10;;
21860;SDS011;11095;48.066;8.540;2022-07-30T07:55:27;3.33;;;1.70;;
21860;SDS011;11095;48.066;8.540;2022-07-30T07:57:53;2.92;;;1.80;;
21860;SDS011;11095;48.066;8.540;2022-07-30T08:00:18;2.20;;;1.45;;
21860;SDS011;11095;48.066;8.540;2022-07-30T08:02:45;3.28;;;1.75;;
21860;SDS011;11095;48.066;8.540;2022-07-30T08:05:11;2.00;;;1.58;;
21860;SDS011;11095;48.066;8.540;2022-07-30T08:07:40;2.55;;;1.90;;
21860;SDS011;11095;48.066;8.540;2022-07-30T08:10:07;3.38;;;1.40;;
21860;SDS011;11095;48.066;8.540;2022-07-30T08:12:33;3.78;;;1.80;;
21860;SDS011;11095;48.066;8.540;2022-07-30T08:15:00;1.67;;;1.33;;
21860;SDS011;11095;48.066;8.540;2022-07-30T08:17:25;2.67;;;1.40;;
21860;SDS011;11095;48.066;8.540;2022-07-30T08:19:51;4.07;;;2.40;;
21860;SDS011;11095;48.066;8.540;2022-07-30T08:22:18;3.20;;;2.13;;
21860;SDS011;11095;48.066;8.540;2022-07-30T08:24:43;5.05;;;2.08;;
21860;SDS011;11095;48.066;8.540;2022-07-30T08:27:09;3.53;;;1.98;;
21860;SDS011;11095;48.066;8.540;2022-07-30T08:29:35;2.63;;;1.67;;
21860;SDS011;11095;48.066;8.540;2022-07-30T08:32:00;2.33;;;1.50;;
21860;SDS011;11095;48.066;8.540;2022-07-30T08:34:26;1.85;;;1.33;;
21860;SDS011;11095;48.066;8.540;2022-07-30T08:36:53;10.52;;;9.43;;
21860;SDS011;11095;48.066;8.540;2022-07-30T08:39:19;6.75;;;5.72;;
21860;SDS011;11095;48.066;8.540;2022-07-30T08:41:45;5.40;;;3.25;;
21860;SDS011;11095;48.066;8.540;2022-07-30T08:44:12;4.15;;;3.45;;
21860;SDS011;11095;48.066;8.540;2022-07-30T08:46:42;3.60;;;2.58;;
21860;SDS011;11095;48.066;8.540;2022-07-30T08:49:10;3.47;;;1.63;;
21860;SDS011;11095;48.066;8.540;2022-07-30T08:51:36;3.17;;;1.80;;
21860;SDS011;11095;48.066;8.540;2022-07-30T08:54:03;2.97;;;1.67;;
21860;SDS011;11095;48.066;8.540;2022-07-30T08:56:30;1.73;;;1.60;;
21860;SDS011;11095;48.066;8.540;2022-07-30T08:58:58;2.00;;;1.50;;
21860;SDS011;11095;48.066;8.540;2022-07-30T09:01:24;2.25;;;1.40;;
21860;SDS011;11095;48.066;8.540;2022-07-30T09:03:50;3.53;;;1.55;;
21860;SDS011;11095;48.066;8.540;2022-07-30T09:06:16;1.92;;;1.50;;
21860;SDS011;11095;48.066;8.540;2022-07-30T09:08:41;2.65;;;1.55;;
21860;SDS011;11095;48.066;8.540;2022-07-30T09:11:07;3.53;;;1.85;;
21860;SDS011;11095;48.066;8.540;2022-07-30T09:13:36;2.80;;;1.48;;
21860;SDS011;11095;48.066;8.540;2022-07-30T09:16:05;2.40;;;1.70;;
21860;SDS011;11095;48.066;8.540;2022-07-30T09:18:35;2.50;;;1.25;;
21860;SDS011;11095;48.066;8.540;2022-07-30T09:23:55;1.73;;;1.33;;
21860;SDS011;11095;48.066;8.540;2022-07-30T09:26:24;1.50;;;1.33;;
21860;SDS011;11095;48.066;8.540;2022-07-30T09:28:51;1.65;;;1.40;;
21860;SDS011;11095;48.066;8.540;2022-07-30T09:31:17;1.98;;;1.35;;
21860;SDS011;11095;48.066;8.540;2022-07-30T09:33:43;1.42;;;1.30;;
21860;SDS011;11095;48.066;8.540;2022-07-30T09:36:11;1.55;;;1.23;;
21860;SDS011;11095;48.066;8.540;2022-07-30T09:38:43;3.85;;;1.50;;
21860;SDS011;11095;48.066;8.540;2022-07-30T09:41:12;2.33;;;1.33;;
21860;SDS011;11095;48.066;8.540;2022-07-30T09:46:14;2.30;;;1.40;;
21860;SDS011;11095;48.066;8.540;2022-07-30T09:48:41;2.70;;;1.45;;
21860;SDS011;11095;48.066;8.540;2022-07-30T09:51:08;2.28;;;1.50;;
21860;SDS011;11095;48.066;8.540;2022-07-30T09:53:35;1.60;;;1.38;;
21860;SDS011;11095;48.066;8.540;2022-07-30T09:56:03;2.55;;;1.90;;
21860;SDS011;11095;48.066;8.540;2022-07-30T09:58:53;3.47;;;1.50;;
21860;SDS011;11095;48.066;8.540;2022-07-30T10:01:19;2.50;;;1.40;;
21860;SDS011;11095;48.066;8.540;2022-07-30T10:03:45;2.55;;;1.55;;
21860;SDS011;11095;48.066;8.540;2022-07-30T10:06:11;1.85;;;1.45;;
21860;SDS011;11095;48.066;8.540;2022-07-30T10:08:44;4.03;;;1.50;;
21860;SDS011;11095;48.066;8.540;2022-07-30T10:11:20;2.50;;;1.20;;
21860;SDS011;11095;48.066;8.540;2022-07-30T10:13:48;1.50;;;1.05;;
21860;SDS011;11095;48.066;8.540;2022-07-30T10:16:14;2.88;;;1.50;;
21860;SDS011;11095;48.066;8.540;2022-07-30T10:18:41;2.15;;;1.48;;
21860;SDS011;11095;48.066;8.540;2022-07-30T10:21:07;3.25;;;1.50;;
21860;SDS011;11095;48.066;8.540;2022-07-30T10:23:33;2.22;;;1.50;;
21860;SDS011;11095;48.066;8.540;2022-07-30T10:25:59;3.17;;;1.40;;
21860;SDS011;11095;48.066;8.540;2022-07-30T10:28:27;3.17;;;1.23;;
21860;SDS011;11095;48.066;8.540;2022-07-30T10:30:54;2.38;;;1.60;;
21860;SDS011;11095;48.066;8.540;2022-07-30T10:33:22;1.67;;;1.42;;
21860;SDS011;11095;48.066;8.540;2022-07-30T10:35:50;2.27;;;1.43;;
21860;SDS011;11095;48.066;8.540;2022-07-30T10:38:16;1.30;;;1.20;;
21860;SDS011;11095;48.066;8.540;2022-07-30T10:46:47;1.80;;;1.40;;
21860;SDS011;11095;48.066;8.540;2022-07-30T10:49:29;2.80;;;1.50;;
21860;SDS011;11095;48.066;8.540;2022-07-30T10:51:55;1.55;;;1.20;;
21860;SDS011;11095;48.066;8.540;2022-07-30T11:02:14;1.85;;;1.30;;
21860;SDS011;11095;48.066;8.540;2022-07-30T11:04:41;1.77;;;1.20;;
21860;SDS011;11095;48.066;8.540;2022-07-30T11:09:51;2.55;;;1.05;;
21860;SDS011;11095;48.066;8.540;2022-07-30T11:15:08;1.95;;;1.40;;
21860;SDS011;11095;48.066;8.540;2022-07-30T11:20:22;1.70;;;1.10;;
21860;SDS011;11095;48.066;8.540;2022-07-30T11:22:47;1.38;;;1.15;;
21860;SDS011;11095;48.066;8.540;2022-07-30T11:27:51;1.63;;;1.30;;
21860;SDS011;11095;48.066;8.540;2022-07-30T11:32:55;2.63;;;1.57;;
21860;SDS011;11095;48.066;8.540;2022-07-30T11:35:30;2.00;;;1.40;;
21860;SDS011;11095;48.066;8.540;2022-07-30T11:41:16;1.55;;;1.20;;
21860;SDS011;11095;48.066;8.540;2022-07-30T11:43:20;1.20;;;1.10;;
21860;SDS011;11095;48.066;8.540;2022-07-30T11:48:31;1.38;;;1.10;;
21860;SDS011;11095;48.066;8.540;2022-07-30T11:50:58;1.65;;;1.05;;
21860;SDS011;11095;48.066;8.540;2022-07-30T11:53:23;3.08;;;1.10;;
21860;SDS011;11095;48.066;8.540;2022-07-30T11:55:50;2.85;;;1.20;;
21860;SDS011;11095;48.066;8.540;2022-07-30T11:58:26;2.97;;;1.10;;
21860;SDS011;11095;48.066;8.540;2022-07-30T12:00:53;1.80;;;1.10;;
21860;SDS011;11095;48.066;8.540;2022-07-30T12:03:39;2.72;;;1.10;;
21860;SDS011;11095;48.066;8.540;2022-07-30T12:06:07;1.33;;;1.00;;
21860;SDS011;11095;48.066;8.540;2022-07-30T12:08:38;1.00;;;0.90;;
21860;SDS011;11095;48.066;8.540;2022-07-30T12:11:05;1.83;;;1.20;;
21860;SDS011;11095;48.066;8.540;2022-07-30T12:13:31;1.92;;;1.10;;
21860;SDS011;11095;48.066;8.540;2022-07-30T12:15:57;1.83;;;1.27;;
21860;SDS011;11095;48.066;8.540;2022-07-30T12:18:26;3.42;;;1.27;;
21860;SDS011;11095;48.066;8.540;2022-07-30T12:21:03;2.53;;;1.10;;
21860;SDS011;11095;48.066;8.540;2022-07-30T12:23:32;1.43;;;0.90;;
21860;SDS011;11095;48.066;8.540;2022-07-30T12:25:58;1.45;;;1.17;;
21860;SDS011;11095;48.066;8.540;2022-07-30T12:30:51;1.98;;;1.30;;
21860;SDS011;11095;48.066;8.540;2022-07-30T12:33:18;1.40;;;1.10;;
21860;SDS011;11095;48.066;8.540;2022-07-30T12:35:46;1.30;;;1.10;;
21860;SDS011;11095;48.066;8.540;2022-07-30T12:38:13;2.25;;;1.10;;
21860;SDS011;11095;48.066;8.540;2022-07-30T12:40:50;1.17;;;1.08;;
21860;SDS011;11095;48.066;8.540;2022-07-30T12:43:16;1.25;;;1.00;;
21860;SDS011;11095;48.066;8.540;2022-07-30T12:45:42;2.30;;;1.38;;
21860;SDS011;11095;48.066;8.540;2022-07-30T12:48:11;1.40;;;1.25;;
21860;SDS011;11095;48.066;8.540;2022-07-30T12:50:37;2.08;;;1.23;;
21860;SDS011;11095;48.066;8.540;2022-07-30T12:53:02;2.50;;;1.27;;
21860;SDS011;11095;48.066;8.540;2022-07-30T12:55:30;2.20;;;1.30;;
21860;SDS011;11095;48.066;8.540;2022-07-30T12:57:58;1.35;;;1.10;;
21860;SDS011;11095;48.066;8.540;2022-07-30T13:00:46;1.25;;;1.00;;
21860;SDS011;11095;48.066;8.540;2022-07-30T13:05:48;1.85;;;1.50;;
21860;SDS011;11095;48.066;8.540;2022-07-30T13:08:15;1.52;;;1.40;;
21860;SDS011;11095;48.066;8.540;2022-07-30T13:13:20;1.77;;;1.40;;
21860;SDS011;11095;48.066;8.540;2022-07-30T13:15:55;2.00;;;1.50;;
21860;SDS011;11095;48.066;8.540;2022-07-30T13:18:29;2.53;;;1.40;;
21860;SDS011;11095;48.066;8.540;2022-07-30T13:20:55;1.50;;;1.40;;
21860;SDS011;11095;48.066;8.540;2022-07-30T13:23:22;1.92;;;1.40;;
21860;SDS011;11095;48.066;8.540;2022-07-30T13:25:48;1.83;;;1.30;;
21860;SDS011;11095;48.066;8.540;2022-07-30T13:28:14;1.65;;;1.38;;
21860;SDS011;11095;48.066;8.540;2022-07-30T13:30:40;1.38;;;1.20;;
21860;SDS011;11095;48.066;8.540;2022-07-30T13:33:06;2.85;;;1.60;;
21860;SDS011;11095;48.066;8.540;2022-07-30T13:35:32;1.52;;;1.42;;
21860;SDS011;11095;48.066;8.540;2022-07-30T13:37:58;1.65;;;1.40;;
21860;SDS011;11095;48.066;8.540;2022-07-30T13:40:26;5.28;;;1.40;;
21860;SDS011;11095;48.066;8.540;2022-07-30T13:42:52;3.33;;;1.63;;
21860;SDS011;11095;48.066;8.540;2022-07-30T13:45:17;2.40;;;1.40;;
21860;SDS011;11095;48.066;8.540;2022-07-30T13:47:43;2.58;;;1.40;;
21860;SDS011;11095;48.066;8.540;2022-07-30T13:50:09;2.35;;;1.70;;
21860;SDS011;11095;48.066;8.540;2022-07-30T13:52:34;2.15;;;1.83;;
21860;SDS011;11095;48.066;8.540;2022-07-30T13:55:00;2.00;;;1.52;;
21860;SDS011;11095;48.066;8.540;2022-07-30T13:57:26;3.60;;;1.73;;
21860;SDS011;11095;48.066;8.540;2022-07-30T13:59:52;3.13;;;1.70;;
21860;SDS011;11095;48.066;8.540;2022-07-30T14:02:17;1.40;;;1.30;;
21860;SDS011;11095;48.066;8.540;2022-07-30T14:04:43;1.67;;;1.50;;
21860;SDS011;11095;48.066;8.540;2022-07-30T14:07:09;2.83;;;1.80;;
21860;SDS011;11095;48.066;8.540;2022-07-30T14:09:34;2.28;;;1.52;;
21860;SDS011;11095;48.066;8.540;2022-07-30T14:12:00;2.05;;;1.38;;
21860;SDS011;11095;48.066;8.540;2022-07-30T14:14:26;2.42;;;1.50;;
21860;SDS011;11095;48.066;8.540;2022-07-30T14:16:51;1.48;;;1.38;;
21860;SDS011;11095;48.066;8.540;2022-07-30T14:19:17;2.22;;;1.60;;
21860;SDS011;11095;48.066;8.540;2022-07-30T14:21:44;2.38;;;1.45;;
21860;SDS011;11095;48.066;8.540;2022-07-30T14:24:10;1.85;;;1.30;;
21860;SDS011;11095;48.066;8.540;2022-07-30T14:26:37;1.95;;;1.45;;
21860;SDS011;11095;48.066;8.540;2022-07-30T14:29:06;2.80;;;1.52;;
21860;SDS011;11095;48.066;8.540;2022-07-30T14:31:32;2.47;;;1.60;;
21860;SDS011;11095;48.066;8.540;2022-07-30T14:33:58;2.17;;;1.70;;
21860;SDS011;11095;48.066;8.540;2022-07-30T14:36:24;2.10;;;1.50;;
21860;SDS011;11095;48.066;8.540;2022-07-30T14:38:54;2.22;;;1.63;;
21860;SDS011;11095;48.066;8.540;2022-07-30T14:41:20;1.63;;;1.30;;
21860;SDS011;11095;48.066;8.540;2022-07-30T14:43:46;2.67;;;1.45;;
21860;SDS011;11095;48.066;8.540;2022-07-30T14:46:11;1.50;;;1.33;;
21860;SDS011;11095;48.066;8.540;2022-07-30T14:48:37;1.50;;;1.40;;
21860;SDS011;11095;48.066;8.540;2022-07-30T14:51:03;2.85;;;1.50;;
21860;SDS011;11095;48.066;8.540;2022-07-30T14:53:29;2.10;;;1.50;;
21860;SDS011;11095;48.066;8.540;2022-07-30T14:55:55;2.17;;;1.50;;
21860;SDS011;11095;48.066;8.540;2022-07-30T14:58:21;3.75;;;1.55;;
21860;SDS011;11095;48.066;8.540;2022-07-30T15:00:47;2.80;;;1.70;;
21860;SDS011;11095;48.066;8.540;2022-07-30T15:03:13;1.50;;;1.40;;
21860;SDS011;11095;48.066;8.540;2022-07-30T15:05:39;1.23;;;1.13;;
21860;SDS011;11095;48.066;8.540;2022-07-30T15:08:04;1.92;;;1.35;;
21860;SDS011;11095;48.066;8.540;2022-07-30T15:10:31;1.40;;;1.30;;
21860;SDS011;11095;48.066;8.540;2022-07-30T15:12:57;2.15;;;1.30;;
21860;SDS011;11095;48.066;8.540;2022-07-30T15:15:22;1.25;;;1.15;;
21860;SDS011;11095;48.066;8.540;2022-07-30T15:17:48;1.40;;;1.25;;
21860;SDS011;11095;48.066;8.540;2022-07-30T15:20:14;3.25;;;1.50;;
21860;SDS011;11095;48.066;8.540;2022-07-30T15:22:39;1.20;;;1.10;;
21860;SDS011;11095;48.066;8.540;2022-07-30T15:25:05;1.20;;;1.10;;
21860;SDS011;11095;48.066;8.540;2022-07-30T15:27:32;1.67;;;1.25;;
21860;SDS011;11095;48.066;8.540;2022-07-30T15:29:57;1.50;;;1.40;;
21860;SDS011;11095;48.066;8.540;2022-07-30T15:32:23;2.55;;;1.20;;
21860;SDS011;11095;48.066;8.540;2022-07-30T15:34:48;1.55;;;1.17;;
21860;SDS011;11095;48.066;8.540;2022-07-30T15:37:14;1.70;;;1.30;;
21860;SDS011;11095;48.066;8.540;2022-07-30T15:39:40;1.20;;;1.10;;
21860;SDS011;11095;48.066;8.540;2022-07-30T15:42:06;2.22;;;1.40;;
21860;SDS011;11095;48.066;8.540;2022-07-30T15:44:32;1.15;;;1.05;;